M I D A S
Marine Information and Data Acquisition System
Tripno 1691 of the Zeeleeuw from 2009-05-08 06:45:49 to 2009-05-08 12:07:22
Back to CruiseResearch ActivitiesStationsMapUnderway DataData graphs

EquipmentUnitsComment
TimeDGPSUTC
LatitudeDGPSDM.mWGS84
LongitudeDGPSDM.mWGS84
TemperatureSBE03/SBE38deg celciusITS90
ConductivitySBE21S/mITS90
SalinitySBE21 Practical Salinity Units
ChlorophylAChelsea fluorimeterg/lCalibrated in Aceton
Missing or incorrect values are displayed as -999
Sea surface data collected by the RV Zeeleeuw from 2009-05-08 06:36:44 to 2009-05-08 12:47:16
Time Latitude Longitude Temperature Conductivity Salinity ChlorophylA
2009-05-08 06:37:49 51°13.664 2°55.958 -999 0.061349 0.348571 -1.279161
2009-05-08 06:38:48 51°13.663 2°55.958 -999 0.061349 0.348591 -1.279161
2009-05-08 06:39:49 51°13.662 2°55.959 -999 0.061349 0.34861 -1.279161
2009-05-08 06:40:49 51°13.663 2°55.958 -999 0.061349 0.34863 -1.313985
2009-05-08 06:41:49 51°13.663 2°55.959 -999 0.061349 0.348649 -1.279161
2009-05-08 06:42:48 51°13.663 2°55.959 -999 0.061349 0.348669 -1.279161
2009-05-08 06:43:47 51°13.663 2°55.959 -999 0.061349 0.348688 -1.313985
2009-05-08 06:44:46 51°13.663 2°55.959 -999 0.061349 0.348708 -1.279161
2009-05-08 06:45:45 51°13.663 2°55.96 -999 0.061349 0.348734 -1.313985
2009-05-08 06:46:45 51°13.662 2°55.96 -999 0.061349 0.348753 -1.279161
2009-05-08 06:47:45 51°13.661 2°55.96 -999 0.061349 0.348773 -1.279161
2009-05-08 06:48:45 51°13.662 2°55.958 -999 0.061349 0.348792 -1.279161
2009-05-08 06:49:49 51°13.675 2°55.916 -999 0.061349 0.348818 -1.313985
2009-05-08 06:50:49 51°13.69 2°55.845 -999 0.061349 0.348831 -1.279161
2009-05-08 06:51:49 51°13.693 2°55.777 -999 0.061349 0.348851 -1.279161
2009-05-08 06:52:49 51°13.697 2°55.749 -999 0.061349 0.348851 -1.279161
2009-05-08 06:53:48 51°13.73 2°55.746 -999 0.061349 0.34887 -1.313985
2009-05-08 06:54:46 51°13.806 2°55.652 -999 0.061349 0.348864 -1.279161
2009-05-08 06:55:45 51°13.93 2°55.555 -999 0.061349 0.34889 -1.313985
2009-05-08 06:56:45 51°14.069 2°55.456 -999 0.061349 0.348909 -1.279161
2009-05-08 06:57:45 51°14.21 2°55.347 -999 0.061349 0.348922 -1.313985
2009-05-08 06:58:45 51°14.324 2°55.181 -999 2.718354 18.988077 4.57128
2009-05-08 06:59:45 51°14.409 2°54.959 -999 3.513194 27.858294 5.372234
2009-05-08 07:00:45 51°14.474 2°54.68 -999 3.574643 28.844874 8.750167
2009-05-08 07:01:45 51°14.405 2°54.392 -999 3.703566 30.329508 10.456545
2009-05-08 07:02:45 51°14.264 2°54.163 -999 3.804324 31.404646 9.690416
2009-05-08 07:03:45 51°14.121 2°53.926 -999 3.87887 32.230538 10.212777
2009-05-08 07:04:45 51°13.988 2°53.674 -999 3.933102 32.860639 12.1281
2009-05-08 07:05:45 51°13.855 2°53.42 -999 3.957991 33.144699 12.615637
2009-05-08 07:06:45 51°13.722 2°53.165 -999 3.970228 33.292998 11.814684
2009-05-08 07:07:45 51°13.621 2°52.97 -999 3.977074 33.385221 11.466443
2009-05-08 07:08:45 51°13.553 2°52.85 -999 3.979667 33.430325 11.536091
2009-05-08 07:09:45 51°13.499 2°52.75 -999 3.979563 33.428608 11.605739
2009-05-08 07:10:45 51°13.456 2°52.674 -999 3.9778 33.41581 11.77986
2009-05-08 07:11:45 51°13.425 2°52.616 -999 3.979667 33.435536 11.257499
2009-05-08 07:12:45 51°13.396 2°52.557 -999 3.978111 33.431381 11.01373
2009-05-08 07:13:45 51°13.358 2°52.479 -999 3.978008 33.434133 10.038657
2009-05-08 07:14:45 51°13.314 2°52.383 -999 3.979771 33.450662 10.247601
2009-05-08 07:15:45 51°13.273 2°52.277 -999 3.979978 33.451861 9.934185
2009-05-08 07:16:45 51°13.232 2°52.17 -999 3.979978 33.456333 9.934185
2009-05-08 07:17:45 51°13.188 2°52.068 -999 3.979563 33.450953 9.446648
2009-05-08 07:18:45 51°13.141 2°51.968 -999 3.977074 33.424638 9.063583
2009-05-08 07:19:45 51°13.094 2°51.864 -999 3.981326 33.465247 9.063583
2009-05-08 07:20:45 51°13.047 2°51.761 -999 3.982467 33.479673 9.098407
2009-05-08 07:21:45 51°12.999 2°51.658 -999 3.981948 33.474065 9.168055
2009-05-08 07:22:45 51°12.952 2°51.556 -999 3.982986 33.484536 9.446648
2009-05-08 07:23:45 51°12.905 2°51.455 -999 3.984645 33.502337 9.481472
2009-05-08 07:24:45 51°12.86 2°51.354 -999 3.985578 33.506612 9.307352
2009-05-08 07:25:45 51°12.823 2°51.247 -999 3.986615 33.514844 9.516296
2009-05-08 07:26:45 51°12.788 2°51.137 -999 3.987549 33.523598 9.307352
2009-05-08 07:27:45 51°12.754 2°51.026 -999 3.989001 33.537215 9.446648
2009-05-08 07:28:45 51°12.72 2°50.916 -999 3.989727 33.547014 9.272528
2009-05-08 07:29:45 51°12.684 2°50.806 -999 3.990141 33.550158 9.098407
2009-05-08 07:30:45 51°12.648 2°50.698 -999 3.990764 33.557491 9.133231
2009-05-08 07:31:45 51°12.612 2°50.59 -999 3.991386 33.56632 9.516296
2009-05-08 07:32:45 51°12.577 2°50.483 -999 3.992112 33.572383 9.760064
2009-05-08 07:33:45 51°12.54 2°50.376 -999 3.992631 33.58099 10.038657
2009-05-08 07:34:45 51°12.504 2°50.267 -999 3.993357 33.591546 10.978906
2009-05-08 07:35:45 51°12.469 2°50.16 -999 3.994186 33.600831 12.441517
2009-05-08 07:36:45 51°12.427 2°50.06 -999 3.994912 33.610642 13.730007
2009-05-08 07:37:45 51°12.384 2°49.962 -999 3.996053 33.624349 14.983672
2009-05-08 07:38:45 51°12.343 2°49.864 -999 3.997194 33.63731 15.262265
2009-05-08 07:39:45 51°12.308 2°49.776 -999 3.99792 33.649379 15.471209
2009-05-08 07:40:45 51°12.283 2°49.718 -999 3.998646 33.65995 15.680154
2009-05-08 07:41:45 51°12.265 2°49.679 -999 3.99958 33.666464 14.948848
2009-05-08 07:42:45 51°12.251 2°49.652 -999 3.999994 33.669609 14.287191
2009-05-08 07:43:45 51°12.239 2°49.635 -999 4.000306 33.674785 13.521062
2009-05-08 07:44:45 51°12.21 2°49.589 -999 4.001032 33.681604 13.346942
2009-05-08 07:45:45 51°12.174 2°49.494 -999 4.00238 33.698778 12.615637
2009-05-08 07:46:45 51°12.132 2°49.389 -999 4.003417 33.710778 12.232572
2009-05-08 07:47:45 51°12.086 2°49.292 -999 4.004143 33.721361 11.988804
2009-05-08 07:48:45 51°12.043 2°49.196 -999 4.005388 33.732304 11.396795
2009-05-08 07:49:45 51°11.998 2°49.103 -999 4.009223 33.657239 10.735138
2009-05-08 07:50:45 51°11.954 2°49.005 -999 4.03961 33.774693 8.332278
2009-05-08 07:51:45 51°11.913 2°48.905 -999 4.026959 33.825688 7.984038
2009-05-08 07:52:45 51°11.869 2°48.81 -999 4.021152 33.850282 8.227806
2009-05-08 07:53:45 51°11.827 2°48.713 -999 4.018663 33.858603 7.357205
2009-05-08 07:54:45 51°11.787 2°48.613 -999 4.018352 33.865503 7.252733
2009-05-08 07:55:45 51°11.747 2°48.513 -999 4.018352 33.881388 7.496501
2009-05-08 07:56:45 51°11.706 2°48.416 -999 4.018767 33.894377 7.113436
2009-05-08 07:57:45 51°11.666 2°48.319 -999 4.01939 33.900993 6.208011
2009-05-08 07:58:45 51°11.625 2°48.221 -999 4.020012 33.915945 6.173187
2009-05-08 07:59:45 51°11.584 2°48.119 -999 4.020427 33.929711 6.382131
2009-05-08 08:00:45 51°11.537 2°48.022 -999 4.020427 33.944132 6.6259
2009-05-08 08:01:45 51°11.494 2°47.918 -999 4.021153 33.947176 6.242835
2009-05-08 08:02:45 51°11.452 2°47.813 -999 4.021257 33.951951 6.904492
2009-05-08 08:03:45 51°11.411 2°47.71 -999 4.021361 33.958246 6.939316
2009-05-08 08:04:45 51°11.371 2°47.607 -999 4.02188 33.968454 6.730372
2009-05-08 08:05:45 51°11.329 2°47.506 -999 4.021984 33.980078 6.416955
2009-05-08 08:06:45 51°11.288 2°47.404 -999 4.02271 33.987685 5.755298
2009-05-08 08:07:45 51°11.247 2°47.301 -999 4.023539 34.003123 5.441882
2009-05-08 08:08:45 51°11.207 2°47.198 -999 4.023436 34.020429 5.093641
2009-05-08 08:09:45 51°11.178 2°47.088 -999 4.023747 34.026416 4.362336
2009-05-08 08:10:45 51°11.164 2°46.971 -999 4.023644 34.037642 4.118568
2009-05-08 08:11:45 51°11.175 2°46.858 -999 4.023229 34.051284 3.422087
2009-05-08 08:12:45 51°11.191 2°46.749 -999 4.02354 34.064922 2.307717
2009-05-08 08:13:45 51°11.199 2°46.676 -999 4.022711 34.07773 2.342541
2009-05-08 08:14:45 51°11.207 2°46.632 -999 4.021674 34.0817 2.238069
2009-05-08 08:15:45 51°11.238 2°46.559 -999 4.020429 34.079882 2.133597
2009-05-08 08:16:45 51°11.311 2°46.482 -999 4.019911 34.072678 2.238069
2009-05-08 08:17:45 51°11.393 2°46.443 -999 4.019703 34.074544 2.412189
2009-05-08 08:18:45 51°11.468 2°46.451 -999 4.017837 34.069133 6.521427
2009-05-08 08:19:45 51°11.54 2°46.468 -999 4.016385 34.051563 8.123334
2009-05-08 08:20:45 51°11.611 2°46.484 -999 4.014621 34.020348 6.138363
2009-05-08 08:21:45 51°11.661 2°46.556 -999 4.012962 34.013826 6.765196
2009-05-08 08:22:45 51°11.666 2°46.662 -999 4.01234 34.01482 5.058817
2009-05-08 08:23:45 51°11.661 2°46.777 -999 4.012029 34.006525 6.6259
2009-05-08 08:24:45 51°11.658 2°46.894 -999 4.011717 33.987538 7.91439
2009-05-08 08:25:45 51°11.654 2°47.006 -999 4.012339 33.972816 10.038657
2009-05-08 08:26:45 51°11.65 2°47.116 -999 4.013583 33.966276 11.187851
2009-05-08 08:27:45 51°11.647 2°47.225 -999 4.015658 33.970625 13.137998
2009-05-08 08:28:45 51°11.643 2°47.335 -999 4.016384 33.974432 13.764831
2009-05-08 08:29:45 51°11.641 2°47.447 -999 4.016384 33.974432 12.30222
2009-05-08 08:30:45 51°11.639 2°47.561 -999 4.014413 33.95659 9.411824
2009-05-08 08:31:45 51°11.637 2°47.676 -999 4.01545 33.955722 6.347307
2009-05-08 08:32:45 51°11.635 2°47.791 -999 4.015346 33.942571 6.277659
2009-05-08 08:33:45 51°11.634 2°47.905 -999 4.016798 33.942581 5.964243
2009-05-08 08:34:45 51°11.636 2°48.018 -999 4.017627 33.93065 5.33741
2009-05-08 08:35:45 51°11.651 2°48.127 -999 4.018768 33.91939 4.849873
2009-05-08 08:36:45 51°11.671 2°48.234 -999 4.019286 33.896229 4.989169
2009-05-08 08:37:45 51°11.69 2°48.342 -999 4.018041 33.87392 5.51153
2009-05-08 08:38:45 51°11.709 2°48.451 -999 4.015967 33.829474 6.765196
2009-05-08 08:39:45 51°11.728 2°48.559 -999 4.013892 33.799416 7.879566
2009-05-08 08:40:45 51°11.752 2°48.665 -999 4.011921 33.765836 8.854639
2009-05-08 08:41:45 51°11.778 2°48.769 -999 4.009743 33.744629 11.919156
2009-05-08 08:42:45 51°11.808 2°48.868 -999 4.008187 33.724757 11.01373
2009-05-08 08:43:45 51°11.84 2°48.964 -999 4.007772 33.710343 9.620768
2009-05-08 08:44:45 51°11.877 2°49.054 -999 4.007876 33.696302 8.889463
2009-05-08 08:45:45 51°11.913 2°49.145 -999 4.006009 33.680289 8.959111
2009-05-08 08:46:45 51°11.949 2°49.235 -999 4.003624 33.66466 9.20288
2009-05-08 08:47:45 51°11.991 2°49.323 -999 4.000824 33.645134 8.854639
2009-05-08 08:48:45 51°12.033 2°49.41 -999 3.999372 33.627765 9.098407
2009-05-08 08:49:45 51°12.075 2°49.501 -999 3.998957 33.628368 10.456545
2009-05-08 08:50:45 51°12.116 2°49.592 -999 3.997816 33.620661 9.098407
2009-05-08 08:51:45 51°12.15 2°49.672 -999 3.997608 33.607482 8.750167
2009-05-08 08:52:45 51°12.179 2°49.742 -999 3.996468 33.59753 8.297454
2009-05-08 08:53:45 51°12.205 2°49.806 -999 3.995431 33.596783 7.635797
2009-05-08 08:54:45 51°12.225 2°49.865 -999 3.994705 33.595961 7.949214
2009-05-08 08:55:45 51°12.239 2°49.918 -999 3.994394 33.596037 8.471574
2009-05-08 08:56:45 51°12.256 2°49.962 -999 3.99429 33.598808 8.332278
2009-05-08 08:57:45 51°12.278 2°49.989 -999 3.994186 33.592593 7.705445
2009-05-08 08:58:45 51°12.3 2°50.001 -999 3.994083 33.590871 7.879566
2009-05-08 08:59:45 51°12.357 2°49.988 -999 3.993357 33.591546 8.018862
2009-05-08 09:00:45 51°12.433 2°49.985 -999 3.992527 33.58376 7.775093
2009-05-08 09:01:45 51°12.491 2°50.063 -999 3.993979 33.604878 8.993935
2009-05-08 09:02:45 51°12.529 2°50.163 -999 3.99429 33.623543 8.541223
2009-05-08 09:03:45 51°12.549 2°50.273 -999 3.99512 33.631336 8.332278
2009-05-08 09:04:45 51°12.559 2°50.387 -999 3.995224 33.628558 8.123334
2009-05-08 09:05:45 51°12.564 2°50.499 -999 3.994498 33.619491 7.949214
2009-05-08 09:06:45 51°12.579 2°50.602 -999 3.993046 33.60211 7.984038
2009-05-08 09:07:45 51°12.609 2°50.699 -999 3.992216 33.592822 7.426853
2009-05-08 09:08:45 51°12.645 2°50.791 -999 3.992009 33.590875 7.461677
2009-05-08 09:09:45 51°12.678 2°50.889 -999 3.991698 33.5917 7.496501
2009-05-08 09:10:45 51°12.705 2°50.994 -999 3.991698 33.592449 7.426853
2009-05-08 09:11:45 51°12.731 2°51.102 -999 3.99149 33.597246 7.496501
2009-05-08 09:12:45 51°12.76 2°51.205 -999 3.991283 33.596798 7.600973
2009-05-08 09:13:45 51°12.802 2°51.296 -999 3.990557 33.593728 7.670621
2009-05-08 09:14:45 51°12.844 2°51.391 -999 3.990246 33.595304 7.809917
2009-05-08 09:15:45 51°12.884 2°51.489 -999 3.989624 33.585711 7.113436
2009-05-08 09:16:45 51°12.924 2°51.585 -999 3.988898 33.575897 7.461677
2009-05-08 09:17:45 51°12.962 2°51.683 -999 3.988794 33.579418 7.879566
2009-05-08 09:18:45 51°13 2°51.78 -999 3.988172 33.568331 7.252733
2009-05-08 09:19:45 51°13.039 2°51.878 -999 3.987342 33.561289 7.357205
2009-05-08 09:20:45 51°13.077 2°51.979 -999 3.987238 33.565557 8.715343
2009-05-08 09:21:45 51°13.122 2°52.071 -999 3.987031 33.569603 8.680519
2009-05-08 09:22:45 51°13.173 2°52.158 -999 3.98672 33.560688 8.227806
2009-05-08 09:23:45 51°13.223 2°52.246 -999 3.986305 33.551551 8.192982
2009-05-08 09:24:45 51°13.273 2°52.335 -999 3.985682 33.539722 8.576047
2009-05-08 09:25:45 51°13.323 2°52.426 -999 3.98506 33.529393 7.844741
2009-05-08 09:26:45 51°13.374 2°52.513 -999 3.984853 33.523708 7.14826
2009-05-08 09:27:45 51°13.434 2°52.579 -999 3.984645 33.519519 7.078612
2009-05-08 09:28:45 51°13.494 2°52.646 -999 3.984127 33.513158 6.347307
2009-05-08 09:29:45 51°13.538 2°52.735 -999 3.98226 33.488176 5.824946
2009-05-08 09:30:45 51°13.562 2°52.817 -999 3.980497 33.462687 5.546354
2009-05-08 09:31:45 51°13.581 2°52.889 -999 3.9806 33.462914 5.51153
2009-05-08 09:32:45 51°13.606 2°52.946 -999 3.980704 33.46314 5.616002
2009-05-08 09:33:45 51°13.637 2°52.991 -999 3.979978 33.459316 5.68565
2009-05-08 09:34:45 51°13.69 2°53.041 -999 3.979148 33.450045 5.720474
2009-05-08 09:35:45 51°13.777 2°53.099 -999 3.977489 33.430016 5.232937
2009-05-08 09:36:45 51°13.824 2°53.178 -999 3.976659 33.415538 5.023993
2009-05-08 09:37:45 51°13.859 2°53.255 -999 3.977074 33.418682 4.501632
2009-05-08 09:38:45 51°13.886 2°53.33 -999 3.977904 33.429436 4.606104
2009-05-08 09:39:45 51°13.91 2°53.4 -999 3.977593 33.424286 4.536456
2009-05-08 09:40:45 51°13.95 2°53.467 -999 3.976555 33.410101 4.606104
2009-05-08 09:41:45 51°14.013 2°53.539 -999 3.976763 33.408324 4.466808
2009-05-08 09:42:45 51°14.1 2°53.596 -999 3.977696 33.420047 4.675753
2009-05-08 09:43:45 51°14.172 2°53.62 -999 3.97977 33.437252 4.536456
2009-05-08 09:44:45 51°14.223 2°53.634 -999 3.98143 33.446845 4.327512
2009-05-08 09:45:45 51°14.275 2°53.655 -999 3.987341 33.508961 3.909623
2009-05-08 09:46:45 51°14.406 2°53.753 -999 3.998853 33.650639 3.839975
2009-05-08 09:47:45 51°14.555 2°53.946 -999 4.00321 33.698303 4.292688
2009-05-08 09:48:45 51°14.697 2°54.188 -999 3.999579 33.647701 3.874799
2009-05-08 09:49:45 51°14.825 2°54.453 -999 3.994704 33.575011 3.665855
2009-05-08 09:50:45 51°14.937 2°54.737 -999 3.989726 33.511174 3.805151
2009-05-08 09:51:45 51°15.036 2°55.035 -999 3.985681 33.451689 3.839975
2009-05-08 09:52:45 51°15.133 2°55.334 -999 3.982259 33.40405 3.979271
2009-05-08 09:53:45 51°15.232 2°55.636 -999 3.97894 33.35521 4.501632
2009-05-08 09:54:45 51°15.324 2°55.908 -999 3.973754 33.286769 4.745401
2009-05-08 09:55:45 51°15.376 2°56.073 -999 3.96805 33.222427 4.536456
2009-05-08 09:56:45 51°15.409 2°56.192 -999 3.964213 33.182186 4.362336
2009-05-08 09:57:45 51°15.449 2°56.312 -999 3.961828 33.154774 4.153392
2009-05-08 09:58:45 51°15.501 2°56.427 -999 3.959961 33.128538 3.631031
2009-05-08 09:59:45 51°15.544 2°56.544 -999 3.956435 33.092714 4.04892
2009-05-08 10:00:45 51°15.583 2°56.659 -999 3.953531 33.058306 4.153392
2009-05-08 10:01:45 51°15.622 2°56.772 -999 3.950627 33.02538 4.257864
2009-05-08 10:02:45 51°15.661 2°56.884 -999 3.948138 32.994143 3.700679
2009-05-08 10:03:45 51°15.699 2°56.995 -999 3.945649 32.962924 3.526559
2009-05-08 10:04:45 51°15.738 2°57.106 -999 3.942849 32.928097 3.561383
2009-05-08 10:05:45 51°15.777 2°57.217 -999 3.940049 32.892565 3.631031
2009-05-08 10:06:45 51°15.816 2°57.328 -999 3.936316 32.853463 4.014096
2009-05-08 10:07:45 51°15.856 2°57.436 -999 3.933309 32.818224 3.526559
2009-05-08 10:08:45 51°15.894 2°57.543 -999 3.929783 32.78181 4.188216
2009-05-08 10:09:45 51°15.933 2°57.649 -999 3.926568 32.752646 5.058817
2009-05-08 10:10:45 51°15.97 2°57.754 -999 3.922835 32.723008 5.33741
2009-05-08 10:11:45 51°16.009 2°57.859 -999 3.918688 32.682279 4.362336
2009-05-08 10:12:45 51°16.049 2°57.965 -999 3.914644 32.640361 4.362336
2009-05-08 10:13:45 51°16.09 2°58.073 -999 3.907904 32.582064 3.979271
2009-05-08 10:14:45 51°16.13 2°58.179 -999 3.900645 32.526147 4.327512
2009-05-08 10:15:45 51°16.169 2°58.285 -999 3.895668 32.48422 4.292688
2009-05-08 10:16:45 51°16.209 2°58.392 -999 3.892454 32.448614 3.909623
2009-05-08 10:17:45 51°16.249 2°58.501 -999 3.888929 32.418742 3.979271
2009-05-08 10:18:45 51°16.291 2°58.611 -999 3.885922 32.400136 5.163289
2009-05-08 10:19:45 51°16.335 2°58.722 -999 3.882915 32.380807 5.51153
2009-05-08 10:20:45 51°16.378 2°58.836 -999 3.880323 32.366042 5.267761
2009-05-08 10:21:45 51°16.422 2°58.95 -999 3.878042 32.35918 5.68565
2009-05-08 10:22:45 51°16.464 2°59.067 -999 3.875761 32.340128 5.302586
2009-05-08 10:23:45 51°16.504 2°59.182 -999 3.872443 32.305711 6.033891
2009-05-08 10:24:45 51°16.538 2°59.29 -999 3.868918 32.265091 4.919521
2009-05-08 10:25:45 51°16.569 2°59.395 -999 3.866015 32.23527 4.675753
2009-05-08 10:26:45 51°16.598 2°59.496 -999 3.863111 32.209024 4.919521
2009-05-08 10:27:45 51°16.633 2°59.62 -999 3.859897 32.181317 5.929418
2009-05-08 10:28:45 51°16.67 2°59.775 -999 3.849737 32.092676 6.416955
2009-05-08 10:29:45 51°16.705 2°59.92 -999 3.837295 31.978626 5.68565
2009-05-08 10:30:45 51°16.743 3°0.05 -999 3.829727 31.906998 4.849873
2009-05-08 10:31:45 51°16.79 3°0.168 -999 3.822988 31.85085 4.780225
2009-05-08 10:32:45 51°16.842 3°0.271 -999 3.817286 31.79445 4.466808
2009-05-08 10:33:45 51°16.891 3°0.376 -999 3.810755 31.737418 4.536456
2009-05-08 10:34:45 51°16.936 3°0.487 -999 3.806712 31.699941 4.954345
2009-05-08 10:35:45 51°16.978 3°0.597 -999 3.802358 31.661692 5.023993
2009-05-08 10:36:45 51°17.02 3°0.704 -999 3.799041 31.631652 4.954345
2009-05-08 10:37:45 51°17.061 3°0.811 -999 3.794583 31.595248 5.267761
2009-05-08 10:38:45 51°17.104 3°0.917 -999 3.791058 31.563989 5.407058
2009-05-08 10:39:45 51°17.147 3°1.022 -999 3.788156 31.540592 5.68565
2009-05-08 10:40:45 51°17.19 3°1.128 -999 3.783491 31.510643 6.068715
2009-05-08 10:41:45 51°17.235 3°1.236 -999 3.777271 31.462077 5.894594
2009-05-08 10:42:45 51°17.283 3°1.343 -999 3.770119 31.418097 6.730372
2009-05-08 10:43:45 51°17.331 3°1.449 -999 3.765455 31.396455 7.357205
2009-05-08 10:44:45 51°17.38 3°1.558 -999 3.760272 31.3658 7.217908
2009-05-08 10:45:45 51°17.426 3°1.668 -999 3.755918 31.335852 6.97414
2009-05-08 10:46:45 51°17.472 3°1.779 -999 3.752394 31.312892 7.461677
2009-05-08 10:47:45 51°17.517 3°1.89 -999 3.749906 31.290497 7.635797
2009-05-08 10:48:45 51°17.563 3°2.001 -999 3.747211 31.264093 8.08851
2009-05-08 10:49:45 51°17.61 3°2.112 -999 3.74462 31.244215 8.576047
2009-05-08 10:50:45 51°17.658 3°2.221 -999 3.742236 31.22487 9.307352
2009-05-08 10:51:45 51°17.705 3°2.331 -999 3.739955 31.19885 8.889463
2009-05-08 10:52:45 51°17.751 3°2.442 -999 3.736016 31.156072 8.854639
2009-05-08 10:53:45 51°17.797 3°2.552 -999 3.728346 31.080798 9.237704
2009-05-08 10:54:45 51°17.842 3°2.66 -999 3.720987 31.016034 8.854639
2009-05-08 10:55:45 51°17.887 3°2.768 -999 3.713524 30.947565 8.959111
2009-05-08 10:56:45 51°17.93 3°2.874 -999 3.698392 30.80808 9.028759
2009-05-08 10:57:45 51°17.971 3°2.981 -999 3.687095 30.711003 9.690416
2009-05-08 10:58:45 51°18.014 3°3.086 -999 3.679425 30.654326 10.108305
2009-05-08 10:59:45 51°18.061 3°3.195 -999 3.675591 30.623592 10.003833
2009-05-08 11:00:45 51°18.108 3°3.304 -999 3.673829 30.618862 10.561018
2009-05-08 11:01:45 51°18.154 3°3.414 -999 3.671445 30.603598 10.944082
2009-05-08 11:02:45 51°18.201 3°3.523 -999 3.668958 30.588051 11.292323
2009-05-08 11:03:45 51°18.248 3°3.632 -999 3.665849 30.563332 11.536091
2009-05-08 11:04:45 51°18.291 3°3.751 -999 3.663154 30.541771 11.431619
2009-05-08 11:05:45 51°18.325 3°3.889 -999 3.660563 30.518448 11.501267
2009-05-08 11:06:45 51°18.361 3°4.025 -999 3.658802 30.502128 11.361971
2009-05-08 11:07:45 51°18.403 3°4.153 -999 3.659734 30.50669 10.700314
2009-05-08 11:08:45 51°18.45 3°4.274 -999 3.660149 30.505093 10.804786
2009-05-08 11:09:45 51°18.503 3°4.38 -999 3.661911 30.52073 12.963877
2009-05-08 11:10:45 51°18.557 3°4.471 -999 3.662325 30.530009 13.521062
2009-05-08 11:11:45 51°18.614 3°4.539 -999 3.656522 30.485084 12.615637
2009-05-08 11:12:45 51°18.666 3°4.569 -999 3.648438 30.42106 12.337044
2009-05-08 11:13:45 51°18.677 3°4.571 -999 3.646055 30.405759 13.346942
2009-05-08 11:14:45 51°18.646 3°4.569 -999 3.646158 30.406041 13.312118
2009-05-08 11:15:45 51°18.618 3°4.53 -999 3.651962 30.451668 13.24247
2009-05-08 11:16:45 51°18.578 3°4.488 -999 3.657454 30.495763 13.24247
2009-05-08 11:17:45 51°18.541 3°4.445 -999 3.661393 30.524089 12.859405
2009-05-08 11:18:45 51°18.509 3°4.396 -999 3.672689 30.623303 14.53096
2009-05-08 11:19:45 51°18.48 3°4.347 -999 3.677664 30.66394 14.53096
2009-05-08 11:20:45 51°18.442 3°4.304 -999 3.683468 30.71089 14.496136
2009-05-08 11:21:45 51°18.399 3°4.266 -999 3.695283 30.802575 14.008599
2009-05-08 11:22:45 51°18.365 3°4.216 -999 3.72192 31.022611 14.356839
2009-05-08 11:23:45 51°18.332 3°4.162 -999 3.748662 31.256012 19.232207
2009-05-08 11:24:45 51°18.3 3°4.108 -999 3.7639 31.382729 18.953615
2009-05-08 11:25:45 51°18.268 3°4.055 -999 3.775924 31.478213 17.351708
2009-05-08 11:26:45 51°18.236 3°3.996 -999 3.782973 31.534506 18.883966
2009-05-08 11:27:45 51°18.209 3°3.93 -999 3.788467 31.579867 18.431254
2009-05-08 11:28:45 51°18.182 3°3.862 -999 3.793443 31.620416 18.640198
2009-05-08 11:29:45 51°18.156 3°3.786 -999 3.796657 31.643911 17.247236
2009-05-08 11:30:45 51°18.132 3°3.708 -999 3.798834 31.659892 15.714978
2009-05-08 11:31:45 51°18.107 3°3.636 -999 3.8007 31.673688 15.262265
2009-05-08 11:32:45 51°18.082 3°3.563 -999 3.804846 31.709339 17.491004
2009-05-08 11:33:45 51°18.052 3°3.487 -999 3.8092 31.746211 18.083013
2009-05-08 11:34:45 51°18.022 3°3.41 -999 3.813866 31.785968 19.650096
2009-05-08 11:35:45 51°17.993 3°3.332 -999 3.819671 31.835599 18.779494
2009-05-08 11:36:45 51°17.962 3°3.252 -999 3.825995 31.884388 16.16769
2009-05-08 11:37:45 51°17.934 3°3.171 -999 3.832526 31.934379 15.262265
2009-05-08 11:38:45 51°17.904 3°3.09 -999 3.842065 32.0165 18.083013
2009-05-08 11:39:45 51°17.875 3°3.01 -999 3.84476 32.053582 21.14753
2009-05-08 11:40:45 51°17.846 3°2.931 -999 3.853988 32.130718 19.789392
2009-05-08 11:41:46 51°17.821 3°2.855 -999 3.864459 32.222254 18.361606
2009-05-08 11:42:45 51°17.797 3°2.784 -999 3.871821 32.279191 17.525828
2009-05-08 11:43:45 51°17.772 3°2.712 -999 3.877731 32.334081 18.640198
2009-05-08 11:44:45 51°17.745 3°2.633 -999 3.879701 32.356679 19.85904
2009-05-08 11:45:45 51°17.712 3°2.557 -999 3.880219 32.365795 22.679788
2009-05-08 11:46:45 51°17.678 3°2.482 -999 3.883226 32.390151 22.993205
2009-05-08 11:47:45 51°17.646 3°2.409 -999 3.893283 32.462064 21.043058
2009-05-08 11:48:46 51°17.616 3°2.332 -999 3.900956 32.523281 19.092911
2009-05-08 11:49:45 51°17.583 3°2.259 -999 3.911222 32.60352 17.491004
2009-05-08 11:50:45 51°17.548 3°2.193 -999 3.914954 32.636757 18.39643
2009-05-08 11:51:45 51°17.51 3°2.125 -999 3.916302 32.644228 18.222309
2009-05-08 11:52:45 51°17.474 3°2.057 -999 3.925013 32.715033 15.889098
2009-05-08 11:53:45 51°17.439 3°1.989 -999 3.949693 32.944428 12.685285
2009-05-08 11:54:45 51°17.404 3°1.917 -999 3.950108 32.962856 15.99357
2009-05-08 11:55:46 51°17.385 3°1.875 -999 3.948345 32.954471 20.834113
2009-05-08 11:56:45 51°17.375 3°1.855 -999 3.950108 32.975252 19.928688
2009-05-08 11:57:46 51°17.351 3°1.829 -999 3.952286 32.994792 14.565784
2009-05-08 11:58:45 51°17.32 3°1.807 -999 3.950419 32.974501 14.53096
2009-05-08 11:59:45 51°17.311 3°1.828 -999 3.949382 32.966308 14.844376
2009-05-08 12:00:45 51°17.31 3°1.852 -999 3.948241 32.958609 18.083013
2009-05-08 12:01:45 51°17.286 3°1.763 -999 3.948345 32.960303 18.291958
2009-05-08 12:02:45 51°17.233 3°1.589 -999 3.949901 32.979159 17.316884
2009-05-08 12:03:45 51°17.178 3°1.362 -999 3.950005 32.983773 17.595476
2009-05-08 12:04:45 51°17.163 3°1.114 -999 3.952805 33.020804 13.904127
2009-05-08 12:05:45 51°17.123 3°0.874 -999 3.969398 33.203341 12.1281
2009-05-08 12:06:46 51°17.081 3°0.628 -999 3.977591 33.297494 12.058452
2009-05-08 12:07:45 51°17.042 3°0.39 -999 3.983295 33.374443 12.615637
2009-05-08 12:08:45 51°16.998 3°0.148 -999 3.983606 33.37661 14.496136
2009-05-08 12:09:45 51°16.963 2°59.907 -999 3.984643 33.401872 18.048189
2009-05-08 12:10:45 51°16.925 2°59.668 -999 3.990867 33.512913 12.337044
2009-05-08 12:11:45 51°16.89 2°59.423 -999 3.991282 33.529482 11.675387
2009-05-08 12:12:45 51°16.852 2°59.178 -999 3.992423 33.554365 11.048554
2009-05-08 12:13:45 51°16.807 2°58.94 -999 3.99709 33.621341 9.55112
2009-05-08 12:14:45 51°16.741 2°58.711 -999 4.000513 33.676733 10.143129
2009-05-08 12:15:46 51°16.667 2°58.479 -999 4.00404 33.726408 10.769962
2009-05-08 12:16:45 51°16.602 2°58.253 -999 4.006944 33.772549 11.292323
2009-05-08 12:17:45 51°16.533 2°58.025 -999 4.009848 33.814969 11.118203
2009-05-08 12:18:45 51°16.454 2°57.801 -999 4.012545 33.850181 12.720109
2009-05-08 12:19:45 51°16.369 2°57.582 -999 4.014619 33.877284 12.894229
2009-05-08 12:20:45 51°16.283 2°57.362 -999 4.015553 33.885317 14.809552
2009-05-08 12:21:45 51°16.199 2°57.142 -999 4.015967 33.88392 15.297089
2009-05-08 12:22:45 51°16.113 2°56.925 -999 4.016175 33.879814 13.938951
2009-05-08 12:23:45 51°16.039 2°56.703 -999 4.015967 33.872561 13.06835
2009-05-08 12:24:46 51°15.968 2°56.469 -999 4.015138 33.866265 14.287191
2009-05-08 12:25:45 51°15.899 2°56.238 -999 4.015449 33.869951 15.610505
2009-05-08 12:26:45 51°15.815 2°56.019 -999 4.015656 33.877203 19.928688
2009-05-08 12:27:45 51°15.716 2°55.818 -999 4.017212 33.915354 14.043423
2009-05-08 12:28:45 51°15.618 2°55.622 -999 4.019184 33.978777 11.187851
2009-05-08 12:29:45 51°15.524 2°55.426 -999 4.016384 33.99654 9.585944
2009-05-08 12:30:45 51°15.428 2°55.229 -999 4.01265 33.97957 9.969009
2009-05-08 12:31:46 51°15.315 2°55.057 -999 4.011821 33.965628 8.401926
2009-05-08 12:32:46 51°15.182 2°54.931 -999 4.012339 33.956807 6.730372
2009-05-08 12:33:45 51°15.042 2°54.836 -999 4.012754 33.966823 5.929418
2009-05-08 12:34:45 51°14.884 2°54.785 -999 4.011613 33.974345 6.660724
2009-05-08 12:35:46 51°14.718 2°54.745 -999 4.008502 33.930462 10.108305
2009-05-08 12:36:45 51°14.551 2°54.792 -999 4.006219 33.858758 14.983672
2009-05-08 12:37:45 51°14.402 2°54.983 -999 4.006321 33.761418 30.34108
2009-05-08 12:38:45 51°14.283 2°55.214 -999 4.009432 33.735691 25.988073
2009-05-08 12:39:45 51°14.181 2°55.375 -999 3.948656 32.961011 1.193347
2009-05-08 12:40:45 51°14.084 2°55.474 -999 2.096251 16.407072 -0.896096
2009-05-08 12:41:45 51°13.977 2°55.55 -999 2.06299 16.123415 -0.896096
2009-05-08 12:42:45 51°13.876 2°55.601 -999 2.057206 16.075844 -0.896096
2009-05-08 12:43:45 51°13.784 2°55.667 -999 2.049356 16.009606 -0.896096
2009-05-08 12:44:46 51°13.722 2°55.767 -999 2.052145 16.033386 -0.896096
2009-05-08 12:45:49 51°13.68 2°55.872 -999 2.049046 16.006964 -0.896096
2009-05-08 12:46:49 51°13.664 2°55.947 -999 2.057723 16.080956 -0.896096